createdAt,value
2023-05-02T00:00:59.354Z,14.69999981
2023-05-02T00:02:31.602Z,14.10000038
2023-05-02T00:03:32.767Z,9.399999619
2023-05-02T00:04:34.256Z,16.10000038
2023-05-02T00:05:35.524Z,19.10000038
2023-05-02T00:06:37.027Z,13.10000038
2023-05-02T00:07:37.726Z,10.19999981
2023-05-02T00:08:39.312Z,9.199999809
2023-05-02T00:09:40.420Z,11.60000038
2023-05-02T00:10:41.162Z,20.29999924
2023-05-02T00:11:42.865Z,12.30000019
2023-05-02T00:12:44.296Z,35
2023-05-02T00:13:45.678Z,14.80000019
2023-05-02T00:14:47.119Z,20
2023-05-02T00:15:48.472Z,11.60000038
2023-05-02T00:16:49.292Z,8.699999809
2023-05-02T00:17:50.142Z,9.100000381
2023-05-02T00:18:50.734Z,9.300000191
2023-05-02T00:19:52.214Z,10
2023-05-02T00:20:53.576Z,8.5
2023-05-02T00:21:55.007Z,9.100000381
2023-05-02T00:22:55.786Z,11.80000019
2023-05-02T00:23:56.938Z,14.10000038
2023-05-02T00:24:58.470Z,11.60000038
2023-05-02T00:25:59.050Z,9.399999619
2023-05-02T00:27:31.296Z,10.10000038
2023-05-02T00:28:32.831Z,10.10000038
2023-05-02T00:29:34.354Z,7.599999905
2023-05-02T00:30:35.400Z,5.900000095
2023-05-02T00:31:37.190Z,5.5
2023-05-02T00:32:38.500Z,7
2023-05-02T00:33:40.019Z,10.69999981
2023-05-02T00:34:41.267Z,15.5
2023-05-02T00:35:42.761Z,17.60000038
2023-05-02T00:36:44.452Z,17.70000076
2023-05-02T00:37:45.837Z,14.10000038
2023-05-02T00:38:47.406Z,8
2023-05-02T00:39:48.754Z,5.800000191
2023-05-02T00:40:49.967Z,5
2023-05-02T00:41:51.459Z,4.699999809
2023-05-02T00:42:52.170Z,5
2023-05-02T00:43:53.964Z,4
2023-05-02T00:44:55.937Z,4.099999905
2023-05-02T00:45:57.461Z,3.900000095
2023-05-02T00:46:58.065Z,3.900000095
2023-05-02T00:47:59.424Z,5.400000095
2023-05-02T00:49:32.057Z,5
2023-05-02T00:50:33.285Z,4.5
2023-05-02T00:51:34.712Z,4.199999809
2023-05-02T00:52:36.104Z,4.300000191
2023-05-02T00:53:36.799Z,5
2023-05-02T00:54:37.500Z,4
2023-05-02T00:55:38.080Z,4.199999809
2023-05-02T00:56:39.174Z,3.900000095
2023-05-02T00:57:40.986Z,3.5
2023-05-02T00:58:42.535Z,3.200000048
2023-05-02T00:59:43.954Z,3.5
2023-05-02T01:00:45.201Z,3.400000095
2023-05-02T01:01:46.450Z,3.799999952
2023-05-02T01:02:48.145Z,3.400000095
2023-05-02T01:03:48.832Z,3.700000048
2023-05-02T01:04:50.346Z,2.5
2023-05-02T01:05:51.678Z,2.700000048
2023-05-02T01:06:54.020Z,2.400000095
2023-05-02T01:07:54.735Z,2.599999905
2023-05-02T01:08:56.336Z,2.099999905
2023-05-02T01:09:58.097Z,2
2023-05-02T01:10:58.921Z,2
2023-05-02T01:12:00.011Z,2
2023-05-02T15:30:24.661Z,2.599999905
2023-05-02T15:31:26.060Z,2.400000095
2023-05-02T15:32:27.569Z,2.599999905
2023-05-02T15:33:29.538Z,2.400000095
2023-05-02T15:34:30.046Z,2.299999952
2023-05-02T15:35:31.562Z,2.400000095
2023-05-02T15:36:32.880Z,2.400000095
2023-05-02T15:37:48.609Z,2.299999952
2023-05-02T15:39:37.359Z,2
2023-05-02T15:40:39.039Z,2.099999905
2023-05-02T15:41:40.592Z,2.299999952
2023-05-02T15:42:42.365Z,2.200000048
2023-05-02T15:43:43.539Z,2.400000095
2023-05-02T15:44:44.187Z,2.5
2023-05-02T15:45:45.659Z,2.700000048
2023-05-02T15:46:47.257Z,2.599999905
2023-05-02T15:47:47.683Z,2.099999905
2023-05-02T15:48:48.486Z,2.200000048
2023-05-02T15:49:49.787Z,2.400000095
2023-05-02T15:50:51.268Z,2
2023-05-02T15:51:53.044Z,2.400000095
2023-05-02T15:53:24.902Z,2.599999905
2023-05-02T15:54:25.617Z,2.400000095
2023-05-02T15:55:26.155Z,2.400000095
2023-05-02T15:56:27.370Z,2.400000095
2023-05-02T15:57:28.759Z,1.899999976
2023-05-02T15:58:30.053Z,2.200000048
2023-05-02T15:59:31.788Z,4.199999809
2023-05-02T16:00:32.550Z,3
2023-05-02T16:01:33.749Z,2.900000095
2023-05-02T16:02:34.998Z,2.799999952
2023-05-02T16:03:36.513Z,2.799999952
2023-05-02T16:04:37.953Z,2.599999905
2023-05-02T16:05:39.284Z,2.700000048
2023-05-02T16:06:40.926Z,3.599999905
2023-05-02T16:07:42.318Z,2.599999905
2023-05-02T16:08:43.576Z,2.5
2023-05-02T16:09:45.025Z,2.200000048
2023-05-02T16:10:46.566Z,2.099999905
2023-05-02T16:11:47.066Z,2.599999905
2023-05-02T16:12:48.247Z,2.599999905
2023-05-02T16:13:49.805Z,2.299999952
2023-05-02T16:14:51.375Z,2.099999905
2023-05-02T16:15:52.604Z,2.099999905
2023-05-02T16:17:23.457Z,2.799999952
2023-05-02T16:18:25.027Z,3.799999952
2023-05-02T16:19:25.585Z,4.300000191
2023-05-02T16:20:27.034Z,2.799999952
2023-05-02T16:21:27.588Z,2.400000095
2023-05-02T16:22:28.841Z,2.599999905
2023-05-02T16:23:29.370Z,1.899999976
2023-05-02T16:24:31.325Z,2
2023-05-02T16:25:32.485Z,2.700000048
2023-05-02T16:26:33.921Z,2.299999952
2023-05-02T16:27:35.049Z,2.200000048
2023-05-02T16:28:36.544Z,2.299999952
2023-05-02T16:29:38.026Z,2
2023-05-02T16:30:39.577Z,2
2023-05-02T16:31:43.621Z,1.799999952
2023-05-02T16:32:42.624Z,1.799999952
2023-05-02T16:33:43.182Z,2.799999952
2023-05-02T16:34:44.817Z,2.700000048
2023-05-02T16:35:46.367Z,2.5
2023-05-02T16:36:47.928Z,2.200000048
2023-05-02T16:37:49.558Z,2.099999905
2023-05-02T16:38:50.024Z,2.099999905
2023-05-02T16:39:51.570Z,2.700000048
2023-05-02T16:41:24.555Z,2.299999952
2023-05-02T16:42:25.226Z,1.899999976
2023-05-02T16:43:26.865Z,1.700000048
2023-05-02T16:44:28.289Z,1.799999952
2023-05-02T16:45:28.843Z,1.600000024
2023-05-02T16:46:30.375Z,1.700000048
2023-05-02T16:47:31.858Z,1.399999976
2023-05-02T16:48:33.135Z,1.700000048
2023-05-02T16:49:34.542Z,1.799999952
2023-05-02T16:50:35.126Z,1.799999952
2023-05-02T16:51:36.567Z,1.799999952
2023-05-02T16:52:38.211Z,2.099999905
2023-05-02T16:53:39.452Z,1.600000024
2023-05-02T16:54:40.849Z,2.099999905
2023-05-02T16:55:42.052Z,1.600000024
2023-05-02T16:56:43.754Z,1.700000048
2023-05-02T16:57:45.089Z,1.700000048
2023-05-02T16:58:46.621Z,1.799999952
2023-05-02T16:59:47.185Z,2.200000048
2023-05-02T17:00:48.445Z,2
2023-05-02T17:01:49.976Z,2
2023-05-02T17:02:51.723Z,1.799999952
2023-05-02T17:04:23.681Z,2.700000048
2023-05-02T17:05:24.818Z,2.200000048
2023-05-02T17:06:26.445Z,3.700000048
2023-05-02T17:07:27.853Z,2.099999905
2023-05-02T17:08:29.253Z,2.299999952
2023-05-02T17:09:30.669Z,4.099999905
2023-05-02T17:10:31.259Z,5.5
2023-05-02T17:11:32.574Z,3.400000095
2023-05-02T17:12:34.069Z,2.900000095
2023-05-02T17:13:34.662Z,2.299999952
2023-05-02T17:14:36.047Z,2.299999952
2023-05-02T17:15:36.535Z,2.099999905
2023-05-02T17:16:37.827Z,1.899999976
2023-05-02T17:17:39.499Z,1.899999976
2023-05-02T17:18:40.010Z,2
2023-05-02T17:19:41.541Z,2.099999905
2023-05-02T17:20:42.797Z,1.899999976
2023-05-02T17:21:44.299Z,2.700000048
2023-05-02T17:22:45.769Z,2.700000048
2023-05-02T17:23:47.094Z,2.900000095
2023-05-02T17:24:48.592Z,2.5
2023-05-02T17:25:49.145Z,2.700000048
2023-05-02T17:26:50.517Z,2.5
2023-05-02T17:27:51.560Z,2.400000095
2023-05-02T17:29:23.383Z,2.099999905
2023-05-02T17:30:24.003Z,2.099999905
2023-05-02T17:31:25.506Z,2.099999905
2023-05-02T17:32:26.864Z,2.599999905
2023-05-02T17:33:28.417Z,3.200000048
2023-05-02T17:34:29.049Z,8.5
2023-05-02T17:35:29.663Z,5.400000095
2023-05-02T17:36:31.153Z,2.799999952
2023-05-02T17:37:32.526Z,2.200000048
2023-05-02T17:38:34.094Z,2.400000095
2023-05-02T17:39:35.562Z,1.899999976
2023-05-02T17:40:37.999Z,1.899999976
2023-05-02T17:41:37.483Z,1.5
2023-05-02T17:42:38.921Z,2.400000095
2023-05-02T17:43:40.069Z,1.899999976
2023-05-02T17:44:41.551Z,1.799999952
2023-05-02T17:45:43.131Z,2.200000048
2023-05-02T17:46:44.676Z,1.600000024
2023-05-02T17:47:46.066Z,1.799999952
2023-05-02T17:48:46.571Z,1.700000048
2023-05-02T17:50:18.530Z,2.799999952
2023-05-02T17:51:50.098Z,2.099999905
2023-05-02T17:52:51.621Z,3
2023-05-02T17:54:23.068Z,3.200000048
2023-05-02T17:55:23.542Z,2
2023-05-02T17:56:24.969Z,2.599999905
2023-05-02T17:57:26.323Z,2.299999952
2023-05-02T17:58:26.904Z,2.200000048
2023-05-02T17:59:28.301Z,2.200000048
2023-05-02T18:00:29.560Z,1.899999976
2023-05-02T18:01:31.116Z,2.200000048
2023-05-02T18:02:32.392Z,2.200000048
2023-05-02T18:03:33.853Z,2
2023-05-02T18:04:35.376Z,1.5
2023-05-02T18:05:36.531Z,1.5
2023-05-02T18:06:37.209Z,1.700000048
2023-05-02T18:07:38.297Z,1.799999952
2023-05-02T18:08:39.258Z,1.700000048
2023-05-02T18:09:40.588Z,1.799999952
2023-05-02T18:10:42.065Z,2.200000048
2023-05-02T18:11:42.503Z,1.700000048
2023-05-02T18:12:43.897Z,2
2023-05-02T18:13:45.254Z,1.899999976
2023-05-02T18:14:46.295Z,2
2023-05-02T18:15:47.861Z,1.899999976
2023-05-02T18:16:49.045Z,1.799999952
2023-05-02T18:17:50.623Z,2
2023-05-02T18:19:22.107Z,1.899999976
2023-05-02T18:20:23.289Z,1.799999952
2023-05-02T18:21:24.252Z,2.200000048
2023-05-02T18:22:24.776Z,2
2023-05-02T18:23:25.322Z,1.700000048
2023-05-02T18:24:25.910Z,2.200000048
2023-05-02T18:25:27.546Z,4.599999905
2023-05-02T18:26:29.026Z,2.799999952
2023-05-02T18:27:30.298Z,2
2023-05-02T18:28:31.610Z,2
2023-05-02T18:29:33.051Z,2.299999952
2023-05-02T18:30:34.594Z,2
2023-05-02T18:31:36.146Z,2.700000048
2023-05-02T18:32:37.167Z,1.899999976
2023-05-02T18:33:38.602Z,1.899999976
2023-05-02T23:05:29.022Z,5.199999809
2023-05-02T23:06:30.644Z,5.900000095
2023-05-02T23:07:32.022Z,7
2023-05-02T23:08:33.412Z,6.599999905
2023-05-02T23:09:34.943Z,6
2023-05-02T23:10:36.118Z,5.699999809
2023-05-02T23:11:37.951Z,5.900000095
2023-05-02T23:12:39.205Z,4.900000095
2023-05-02T23:13:39.830Z,4.800000191
2023-05-02T23:14:40.980Z,4.800000191
2023-05-02T23:15:41.719Z,4.800000191
2023-05-02T23:16:43.209Z,5.699999809
2023-05-02T23:17:44.691Z,5.099999905
2023-05-02T23:18:45.932Z,4.099999905
2023-05-02T23:20:17.778Z,4.300000191
2023-05-02T23:21:18.963Z,4
2023-05-02T23:22:20.639Z,4.400000095
2023-05-02T23:23:22.165Z,4.800000191
2023-05-02T23:24:22.721Z,4.400000095
2023-05-02T23:25:23.950Z,4.5
2023-05-02T23:26:25.356Z,5.099999905
2023-05-02T23:27:27.170Z,4.599999905
2023-05-02T23:28:27.805Z,4.900000095
2023-05-02T23:29:28.934Z,5
2023-05-02T23:30:30.111Z,5.400000095
2023-05-02T23:31:31.630Z,4.800000191
2023-05-02T23:32:32.327Z,5.300000191
2023-05-02T23:33:33.477Z,4.800000191
2023-05-02T23:34:34.097Z,5.5
2023-05-02T23:35:34.672Z,4.900000095
2023-05-02T23:36:36.108Z,4.699999809
2023-05-02T23:37:37.721Z,5.099999905
2023-05-02T23:38:38.344Z,5.099999905
2023-05-02T23:39:40.006Z,5
2023-05-02T23:40:41.159Z,4.5
2023-05-02T23:41:42.591Z,4.400000095
2023-05-02T23:42:44.219Z,5.099999905
2023-05-02T23:43:44.941Z,5.300000191
2023-05-02T23:44:46.956Z,5.099999905
2023-05-02T23:46:18.839Z,4.900000095
2023-05-02T23:47:19.893Z,5.099999905
2023-05-02T23:48:21.511Z,4.900000095
2023-05-02T23:49:22.981Z,5.199999809
2023-05-02T23:50:24.610Z,5.199999809
2023-05-02T23:51:25.897Z,4.599999905
2023-05-02T23:52:27.363Z,4.800000191
2023-05-02T23:53:28.984Z,4.800000191
2023-05-02T23:54:31.904Z,5
2023-05-02T23:55:31.853Z,4.5
2023-05-02T23:56:33.458Z,4.900000095
2023-05-02T23:57:34.992Z,5.300000191
2023-05-02T23:58:36.605Z,4.400000095
2023-05-02T23:59:38.007Z,5.099999905
